Akron Fulton International Airport
KAKR : now visible

Airfield :











YOU CAN JOIN US ON...

 
LOGIN :

Register | Disclaimer

   EN    FR    IT 

 









Legend :    VFR   Marginal VFR   IFR   Intensive IFR   Very Intensive IFR
Visi :
Ceiling :
>= 8 km
>= 3000ft
5 to 8 km
1000 to 3000 ft
1500m to 5 km
500 to 1000 ft
800 to 1500m
200 to 500 ft
< 800m
< 200 ft
Symbols :   Thunderstorms  Fog  Heavy snow  Heavy precipitations  Wind > 20 kt






- Airport Elevation : 1067 ft


KAKR - Akron Fulton International

CURRENT METAR :
  • 041554Z AUTO 33006KT 10SM FEW013 SCT060 BKN095 23/17 A2991 RMK AO2 RAB19E51 SLP119 P0000 T02330172

EXPIRED METARs :
  • 041454Z AUTO 35006KT 10SM FEW046 BKN060 OVC080 23/17 A2990 RMK AO2 SLP117 60001 T02330172 50000
  • 041354Z AUTO 04003KT 10SM FEW013 BKN044 OVC090 22/17 A2989 RMK AO2 RAB34E48 SLP115 P0001 T02220172
  • 041343Z AUTO 03005KT 4SM -RA FEW013 BKN031 OVC055 22/17 A2990 RMK AO2 RAB34 P0001 T02170172

TAF N/A
KZOB FIR / North America



MET'MAP, your aeronautical weather chart ! - Copyright ORBIFLY December 2007 - Disclaimer

ORBIFLY MET'MAP TEAM :

Programming & Development : Alexandra Zaïnal
Concept & original design : Baudouin d'Aumeries
Assistance for programming : Marc-Olivier Méhu
Technical & hardware support : Manuel Goepfert

Contact : metmap@orbifly.com




SOURCES & CREDITS :

   NOAA       Earth
Advisory